sensor_id;sensor_type;location;lat;lon;timestamp;temperature;humidity
25839;DHT22;13669;50.186;27.062;2022-07-18T00:02:15;12.60;99.90
25839;DHT22;13669;50.186;27.062;2022-07-18T00:04:43;12.60;99.90
25839;DHT22;13669;50.186;27.062;2022-07-18T00:07:11;12.50;99.90
25839;DHT22;13669;50.186;27.062;2022-07-18T00:09:40;12.40;99.90
25839;DHT22;13669;50.186;27.062;2022-07-18T00:12:10;12.40;99.90
25839;DHT22;13669;50.186;27.062;2022-07-18T00:14:38;12.20;99.90
25839;DHT22;13669;50.186;27.062;2022-07-18T00:17:06;12.20;99.90
25839;DHT22;13669;50.186;27.062;2022-07-18T00:19:35;12.10;99.90
25839;DHT22;13669;50.186;27.062;2022-07-18T00:22:03;12.10;99.90
25839;DHT22;13669;50.186;27.062;2022-07-18T00:24:31;12.10;99.90
25839;DHT22;13669;50.186;27.062;2022-07-18T00:27:04;12.20;99.90
25839;DHT22;13669;50.186;27.062;2022-07-18T00:29:35;12.20;99.90
25839;DHT22;13669;50.186;27.062;2022-07-18T00:32:07;12.20;99.90
25839;DHT22;13669;50.186;27.062;2022-07-18T00:34:36;12.10;99.90
25839;DHT22;13669;50.186;27.062;2022-07-18T00:37:03;12.10;99.90
25839;DHT22;13669;50.186;27.062;2022-07-18T00:39:31;12.10;99.90
25839;DHT22;13669;50.186;27.062;2022-07-18T00:41:59;12.00;99.90
25839;DHT22;13669;50.186;27.062;2022-07-18T00:44:27;12.00;99.90
25839;DHT22;13669;50.186;27.062;2022-07-18T00:47:00;11.90;99.90
25839;DHT22;13669;50.186;27.062;2022-07-18T00:49:28;11.90;99.90
25839;DHT22;13669;50.186;27.062;2022-07-18T00:51:57;11.90;99.90
25839;DHT22;13669;50.186;27.062;2022-07-18T00:54:24;11.90;99.90
25839;DHT22;13669;50.186;27.062;2022-07-18T00:56:53;11.90;99.90
25839;DHT22;13669;50.186;27.062;2022-07-18T00:59:20;11.80;99.90
25839;DHT22;13669;50.186;27.062;2022-07-18T01:01:48;11.90;99.90
25839;DHT22;13669;50.186;27.062;2022-07-18T01:04:21;11.80;99.90
25839;DHT22;13669;50.186;27.062;2022-07-18T01:06:50;11.90;99.90
25839;DHT22;13669;50.186;27.062;2022-07-18T01:09:18;11.80;99.90
25839;DHT22;13669;50.186;27.062;2022-07-18T01:11:47;11.70;99.90
25839;DHT22;13669;50.186;27.062;2022-07-18T01:14:15;11.60;99.90
25839;DHT22;13669;50.186;27.062;2022-07-18T01:16:43;11.70;99.90
25839;DHT22;13669;50.186;27.062;2022-07-18T01:19:11;11.60;99.90
25839;DHT22;13669;50.186;27.062;2022-07-18T01:21:39;11.70;99.90
25839;DHT22;13669;50.186;27.062;2022-07-18T01:24:07;11.70;99.90
25839;DHT22;13669;50.186;27.062;2022-07-18T01:26:34;11.70;99.90
25839;DHT22;13669;50.186;27.062;2022-07-18T01:29:04;11.70;99.90
25839;DHT22;13669;50.186;27.062;2022-07-18T01:31:31;11.70;99.90
25839;DHT22;13669;50.186;27.062;2022-07-18T01:34:02;11.70;99.90
25839;DHT22;13669;50.186;27.062;2022-07-18T01:36:29;11.60;99.90
25839;DHT22;13669;50.186;27.062;2022-07-18T01:38:57;11.60;99.90
25839;DHT22;13669;50.186;27.062;2022-07-18T01:41:24;11.60;99.90
25839;DHT22;13669;50.186;27.062;2022-07-18T01:43:52;11.50;99.90
25839;DHT22;13669;50.186;27.062;2022-07-18T01:46:20;11.50;99.90
25839;DHT22;13669;50.186;27.062;2022-07-18T01:48:47;11.50;99.90
25839;DHT22;13669;50.186;27.062;2022-07-18T01:51:15;11.50;99.90
25839;DHT22;13669;50.186;27.062;2022-07-18T01:53:42;11.40;99.90
25839;DHT22;13669;50.186;27.062;2022-07-18T01:56:20;11.40;99.90
25839;DHT22;13669;50.186;27.062;2022-07-18T01:58:47;11.30;99.90
25839;DHT22;13669;50.186;27.062;2022-07-18T02:01:15;11.30;99.90
25839;DHT22;13669;50.186;27.062;2022-07-18T02:03:42;11.40;99.90
25839;DHT22;13669;50.186;27.062;2022-07-18T02:06:10;11.30;99.90
25839;DHT22;13669;50.186;27.062;2022-07-18T02:08:37;11.40;99.90
25839;DHT22;13669;50.186;27.062;2022-07-18T02:11:05;11.40;99.90
25839;DHT22;13669;50.186;27.062;2022-07-18T02:13:32;11.50;99.90
25839;DHT22;13669;50.186;27.062;2022-07-18T02:16:00;11.60;99.90
25839;DHT22;13669;50.186;27.062;2022-07-18T02:18:28;11.60;99.90
25839;DHT22;13669;50.186;27.062;2022-07-18T02:21:05;11.60;99.90
25839;DHT22;13669;50.186;27.062;2022-07-18T02:23:33;11.60;99.90
25839;DHT22;13669;50.186;27.062;2022-07-18T02:26:01;11.50;99.90
25839;DHT22;13669;50.186;27.062;2022-07-18T02:28:28;11.30;99.90
25839;DHT22;13669;50.186;27.062;2022-07-18T02:30:56;11.30;99.90
25839;DHT22;13669;50.186;27.062;2022-07-18T02:33:23;11.30;99.90
25839;DHT22;13669;50.186;27.062;2022-07-18T02:35:51;11.30;99.90
25839;DHT22;13669;50.186;27.062;2022-07-18T02:38:20;11.30;99.90
25839;DHT22;13669;50.186;27.062;2022-07-18T02:40:52;11.20;99.90
25839;DHT22;13669;50.186;27.062;2022-07-18T02:43:20;11.20;99.90
25839;DHT22;13669;50.186;27.062;2022-07-18T02:45:47;11.20;99.90
25839;DHT22;13669;50.186;27.062;2022-07-18T02:48:15;11.20;99.90
25839;DHT22;13669;50.186;27.062;2022-07-18T02:50:42;11.10;99.90
25839;DHT22;13669;50.186;27.062;2022-07-18T02:53:10;11.10;99.90
25839;DHT22;13669;50.186;27.062;2022-07-18T02:55:37;11.20;99.90
25839;DHT22;13669;50.186;27.062;2022-07-18T02:58:05;11.20;99.90
25839;DHT22;13669;50.186;27.062;2022-07-18T03:00:32;11.20;99.90
25839;DHT22;13669;50.186;27.062;2022-07-18T03:03:00;11.20;99.90
25839;DHT22;13669;50.186;27.062;2022-07-18T03:05:27;11.20;99.90
25839;DHT22;13669;50.186;27.062;2022-07-18T03:07:55;11.20;99.90
25839;DHT22;13669;50.186;27.062;2022-07-18T03:10:23;11.30;99.90
25839;DHT22;13669;50.186;27.062;2022-07-18T03:12:50;11.30;99.90
25839;DHT22;13669;50.186;27.062;2022-07-18T03:15:18;11.40;99.90
25839;DHT22;13669;50.186;27.062;2022-07-18T03:17:45;11.40;99.90
25839;DHT22;13669;50.186;27.062;2022-07-18T03:20:13;11.50;99.90
25839;DHT22;13669;50.186;27.062;2022-07-18T03:22:40;11.50;99.90
25839;DHT22;13669;50.186;27.062;2022-07-18T03:25:08;11.50;99.90
25839;DHT22;13669;50.186;27.062;2022-07-18T03:27:42;11.50;99.90
25839;DHT22;13669;50.186;27.062;2022-07-18T03:30:10;11.60;99.90
25839;DHT22;13669;50.186;27.062;2022-07-18T03:32:37;11.70;99.90
25839;DHT22;13669;50.186;27.062;2022-07-18T03:35:05;11.70;99.90
25839;DHT22;13669;50.186;27.062;2022-07-18T03:37:33;11.80;99.90
25839;DHT22;13669;50.186;27.062;2022-07-18T03:40:01;11.80;99.90
25839;DHT22;13669;50.186;27.062;2022-07-18T03:42:28;11.90;99.90
25839;DHT22;13669;50.186;27.062;2022-07-18T03:44:56;11.90;99.90
25839;DHT22;13669;50.186;27.062;2022-07-18T03:47:23;12.00;99.90
25839;DHT22;13669;50.186;27.062;2022-07-18T03:49:50;12.00;99.90
25839;DHT22;13669;50.186;27.062;2022-07-18T03:52:18;12.10;99.90
25839;DHT22;13669;50.186;27.062;2022-07-18T03:54:45;12.10;99.90
25839;DHT22;13669;50.186;27.062;2022-07-18T03:57:13;12.30;99.90
25839;DHT22;13669;50.186;27.062;2022-07-18T03:59:40;12.30;99.90
25839;DHT22;13669;50.186;27.062;2022-07-18T04:02:08;12.40;99.90
25839;DHT22;13669;50.186;27.062;2022-07-18T04:04:35;12.40;99.90
25839;DHT22;13669;50.186;27.062;2022-07-18T04:07:03;12.50;99.90
25839;DHT22;13669;50.186;27.062;2022-07-18T04:09:30;12.50;99.90
25839;DHT22;13669;50.186;27.062;2022-07-18T04:11:58;12.50;99.90
25839;DHT22;13669;50.186;27.062;2022-07-18T04:14:25;12.60;99.90
25839;DHT22;13669;50.186;27.062;2022-07-18T04:16:53;12.70;99.90
25839;DHT22;13669;50.186;27.062;2022-07-18T04:19:21;12.70;99.90
25839;DHT22;13669;50.186;27.062;2022-07-18T04:21:50;12.70;99.90
25839;DHT22;13669;50.186;27.062;2022-07-18T04:24:18;12.70;99.90
25839;DHT22;13669;50.186;27.062;2022-07-18T04:26:45;12.70;99.90
25839;DHT22;13669;50.186;27.062;2022-07-18T04:29:13;12.80;99.90
25839;DHT22;13669;50.186;27.062;2022-07-18T04:31:41;13.00;99.90
25839;DHT22;13669;50.186;27.062;2022-07-18T04:34:08;13.00;99.90
25839;DHT22;13669;50.186;27.062;2022-07-18T04:36:36;13.10;99.90
25839;DHT22;13669;50.186;27.062;2022-07-18T04:39:03;13.10;99.90
25839;DHT22;13669;50.186;27.062;2022-07-18T04:41:31;13.10;99.90
25839;DHT22;13669;50.186;27.062;2022-07-18T04:44:02;13.10;99.90
25839;DHT22;13669;50.186;27.062;2022-07-18T04:46:30;13.10;99.90
25839;DHT22;13669;50.186;27.062;2022-07-18T04:48:58;13.10;99.90
25839;DHT22;13669;50.186;27.062;2022-07-18T04:51:25;13.20;99.90
25839;DHT22;13669;50.186;27.062;2022-07-18T04:53:53;13.30;99.90
25839;DHT22;13669;50.186;27.062;2022-07-18T04:56:22;13.40;99.90
25839;DHT22;13669;50.186;27.062;2022-07-18T04:58:49;13.40;99.90
25839;DHT22;13669;50.186;27.062;2022-07-18T05:01:17;13.40;99.90
25839;DHT22;13669;50.186;27.062;2022-07-18T05:03:45;13.50;99.90
25839;DHT22;13669;50.186;27.062;2022-07-18T05:06:12;13.50;99.90
25839;DHT22;13669;50.186;27.062;2022-07-18T05:08:40;13.60;99.90
25839;DHT22;13669;50.186;27.062;2022-07-18T05:11:08;13.60;99.90
25839;DHT22;13669;50.186;27.062;2022-07-18T05:13:35;13.60;99.90
25839;DHT22;13669;50.186;27.062;2022-07-18T05:16:03;13.60;99.90
25839;DHT22;13669;50.186;27.062;2022-07-18T05:18:31;13.70;99.90
25839;DHT22;13669;50.186;27.062;2022-07-18T05:20:58;13.80;99.90
25839;DHT22;13669;50.186;27.062;2022-07-18T05:23:26;13.80;99.90
25839;DHT22;13669;50.186;27.062;2022-07-18T05:25:53;13.90;99.90
25839;DHT22;13669;50.186;27.062;2022-07-18T05:28:21;14.00;99.90
25839;DHT22;13669;50.186;27.062;2022-07-18T05:30:49;14.10;99.90
25839;DHT22;13669;50.186;27.062;2022-07-18T05:33:16;14.20;99.90
25839;DHT22;13669;50.186;27.062;2022-07-18T05:35:44;14.30;99.90
25839;DHT22;13669;50.186;27.062;2022-07-18T05:38:11;14.40;99.90
25839;DHT22;13669;50.186;27.062;2022-07-18T05:40:39;14.30;99.90
25839;DHT22;13669;50.186;27.062;2022-07-18T05:43:06;14.40;99.90
25839;DHT22;13669;50.186;27.062;2022-07-18T05:45:34;14.50;99.90
25839;DHT22;13669;50.186;27.062;2022-07-18T05:48:02;14.50;99.90
25839;DHT22;13669;50.186;27.062;2022-07-18T05:50:29;14.60;99.90
25839;DHT22;13669;50.186;27.062;2022-07-18T05:52:57;14.70;99.90
25839;DHT22;13669;50.186;27.062;2022-07-18T05:55:24;14.80;99.90
25839;DHT22;13669;50.186;27.062;2022-07-18T05:57:52;14.90;91.50
25839;DHT22;13669;50.186;27.062;2022-07-18T06:00:20;15.00;76.20
25839;DHT22;13669;50.186;27.062;2022-07-18T06:02:49;15.10;77.80
25839;DHT22;13669;50.186;27.062;2022-07-18T06:05:17;15.10;83.20
25839;DHT22;13669;50.186;27.062;2022-07-18T06:07:54;15.10;87.90
25839;DHT22;13669;50.186;27.062;2022-07-18T06:10:23;15.20;93.10
25839;DHT22;13669;50.186;27.062;2022-07-18T06:12:51;15.20;85.50
25839;DHT22;13669;50.186;27.062;2022-07-18T06:15:19;15.30;91.50
25839;DHT22;13669;50.186;27.062;2022-07-18T06:17:47;15.40;85.30
25839;DHT22;13669;50.186;27.062;2022-07-18T06:20:15;15.50;81.10
25839;DHT22;13669;50.186;27.062;2022-07-18T06:22:43;15.70;99.90
25839;DHT22;13669;50.186;27.062;2022-07-18T06:25:11;15.70;91.30
25839;DHT22;13669;50.186;27.062;2022-07-18T06:27:38;15.80;88.70
25839;DHT22;13669;50.186;27.062;2022-07-18T06:30:07;16.00;91.80
25839;DHT22;13669;50.186;27.062;2022-07-18T06:32:37;16.00;56.10
25839;DHT22;13669;50.186;27.062;2022-07-18T06:35:06;16.00;30.00
25839;DHT22;13669;50.186;27.062;2022-07-18T06:37:34;16.00;35.50
25839;DHT22;13669;50.186;27.062;2022-07-18T06:40:01;16.00;35.30
25839;DHT22;13669;50.186;27.062;2022-07-18T06:42:30;16.10;37.60
25839;DHT22;13669;50.186;27.062;2022-07-18T06:44:58;16.20;43.50
25839;DHT22;13669;50.186;27.062;2022-07-18T06:47:25;16.20;34.90
25839;DHT22;13669;50.186;27.062;2022-07-18T06:49:53;16.30;36.60
25839;DHT22;13669;50.186;27.062;2022-07-18T06:52:20;16.40;47.60
25839;DHT22;13669;50.186;27.062;2022-07-18T06:54:48;16.60;43.30
25839;DHT22;13669;50.186;27.062;2022-07-18T06:57:15;16.70;28.50
25839;DHT22;13669;50.186;27.062;2022-07-18T06:59:43;16.70;8.20
25839;DHT22;13669;50.186;27.062;2022-07-18T07:02:17;16.70;7.10
25839;DHT22;13669;50.186;27.062;2022-07-18T07:04:44;16.70;1.00
25839;DHT22;13669;50.186;27.062;2022-07-18T07:07:12;16.80;1.00
25839;DHT22;13669;50.186;27.062;2022-07-18T07:09:39;16.80;1.00
25839;DHT22;13669;50.186;27.062;2022-07-18T07:12:07;16.90;1.00
25839;DHT22;13669;50.186;27.062;2022-07-18T07:14:34;17.00;1.00
25839;DHT22;13669;50.186;27.062;2022-07-18T07:17:03;17.00;1.00
25839;DHT22;13669;50.186;27.062;2022-07-18T07:19:30;17.20;1.00
25839;DHT22;13669;50.186;27.062;2022-07-18T07:21:58;17.30;1.00
25839;DHT22;13669;50.186;27.062;2022-07-18T07:24:25;17.50;1.00
25839;DHT22;13669;50.186;27.062;2022-07-18T07:26:53;17.50;1.00
25839;DHT22;13669;50.186;27.062;2022-07-18T07:29:22;17.60;1.00
25839;DHT22;13669;50.186;27.062;2022-07-18T07:31:50;17.60;1.00
25839;DHT22;13669;50.186;27.062;2022-07-18T07:34:18;17.80;1.00
25839;DHT22;13669;50.186;27.062;2022-07-18T07:36:45;17.80;1.00
25839;DHT22;13669;50.186;27.062;2022-07-18T07:39:18;17.70;1.00
25839;DHT22;13669;50.186;27.062;2022-07-18T07:41:45;17.80;1.00
25839;DHT22;13669;50.186;27.062;2022-07-18T07:44:18;17.70;1.00
25839;DHT22;13669;50.186;27.062;2022-07-18T07:46:45;17.70;1.00
25839;DHT22;13669;50.186;27.062;2022-07-18T07:49:12;17.60;1.00
25839;DHT22;13669;50.186;27.062;2022-07-18T07:51:40;17.70;1.00
25839;DHT22;13669;50.186;27.062;2022-07-18T07:54:08;17.80;1.00
25839;DHT22;13669;50.186;27.062;2022-07-18T07:56:36;17.90;1.00
25839;DHT22;13669;50.186;27.062;2022-07-18T07:59:03;18.20;1.00
25839;DHT22;13669;50.186;27.062;2022-07-18T08:01:31;18.30;1.00
25839;DHT22;13669;50.186;27.062;2022-07-18T08:03:58;18.50;1.00
25839;DHT22;13669;50.186;27.062;2022-07-18T08:06:26;18.40;1.00
25839;DHT22;13669;50.186;27.062;2022-07-18T08:08:54;18.40;1.00
25839;DHT22;13669;50.186;27.062;2022-07-18T08:11:25;18.50;1.00
25839;DHT22;13669;50.186;27.062;2022-07-18T08:13:53;18.40;1.00
25839;DHT22;13669;50.186;27.062;2022-07-18T08:16:22;18.30;1.00
25839;DHT22;13669;50.186;27.062;2022-07-18T08:18:49;18.40;1.00
25839;DHT22;13669;50.186;27.062;2022-07-18T08:21:17;18.50;1.00
25839;DHT22;13669;50.186;27.062;2022-07-18T08:23:45;18.50;1.00
25839;DHT22;13669;50.186;27.062;2022-07-18T08:26:14;18.60;1.00
25839;DHT22;13669;50.186;27.062;2022-07-18T08:28:42;18.60;1.00
25839;DHT22;13669;50.186;27.062;2022-07-18T08:31:10;18.90;1.00
25839;DHT22;13669;50.186;27.062;2022-07-18T08:33:38;19.10;1.00
25839;DHT22;13669;50.186;27.062;2022-07-18T08:36:05;19.20;1.00
25839;DHT22;13669;50.186;27.062;2022-07-18T08:38:35;19.10;1.00
25839;DHT22;13669;50.186;27.062;2022-07-18T08:41:03;19.20;1.00
25839;DHT22;13669;50.186;27.062;2022-07-18T08:43:31;19.10;1.00
25839;DHT22;13669;50.186;27.062;2022-07-18T08:46:04;19.20;1.00
25839;DHT22;13669;50.186;27.062;2022-07-18T08:48:32;19.40;1.00
25839;DHT22;13669;50.186;27.062;2022-07-18T08:51:00;19.50;1.00
25839;DHT22;13669;50.186;27.062;2022-07-18T08:53:28;19.40;1.00
25839;DHT22;13669;50.186;27.062;2022-07-18T08:55:56;19.50;1.00
25839;DHT22;13669;50.186;27.062;2022-07-18T08:58:23;19.60;1.00
25839;DHT22;13669;50.186;27.062;2022-07-18T09:01:11;19.70;1.00
25839;DHT22;13669;50.186;27.062;2022-07-18T09:03:39;20.00;1.00
25839;DHT22;13669;50.186;27.062;2022-07-18T09:06:12;20.00;1.00
25839;DHT22;13669;50.186;27.062;2022-07-18T09:08:58;20.00;1.00
25839;DHT22;13669;50.186;27.062;2022-07-18T09:12:12;20.10;1.00
25839;DHT22;13669;50.186;27.062;2022-07-18T09:14:42;20.10;1.00
25839;DHT22;13669;50.186;27.062;2022-07-18T09:17:11;20.40;1.00
25839;DHT22;13669;50.186;27.062;2022-07-18T09:22:24;20.40;99.90
25839;DHT22;13669;50.186;27.062;2022-07-18T09:25:07;20.50;99.90
25839;DHT22;13669;50.186;27.062;2022-07-18T09:27:41;20.00;99.90
25839;DHT22;13669;50.186;27.062;2022-07-18T09:32:41;20.00;99.90
25839;DHT22;13669;50.186;27.062;2022-07-18T09:35:11;20.40;1.00
25839;DHT22;13669;50.186;27.062;2022-07-18T09:37:39;20.50;99.90
25839;DHT22;13669;50.186;27.062;2022-07-18T09:40:23;20.60;99.90
25839;DHT22;13669;50.186;27.062;2022-07-18T09:42:53;20.70;99.90
25839;DHT22;13669;50.186;27.062;2022-07-18T09:45:25;20.80;99.90
25839;DHT22;13669;50.186;27.062;2022-07-18T09:48:05;20.90;99.90
25839;DHT22;13669;50.186;27.062;2022-07-18T09:55:56;21.00;99.90
25839;DHT22;13669;50.186;27.062;2022-07-18T09:58:38;21.10;99.90
25839;DHT22;13669;50.186;27.062;2022-07-18T10:01:08;20.80;99.90
25839;DHT22;13669;50.186;27.062;2022-07-18T10:03:36;20.90;99.90
25839;DHT22;13669;50.186;27.062;2022-07-18T10:06:06;20.80;99.90
25839;DHT22;13669;50.186;27.062;2022-07-18T10:08:35;21.00;99.90
25839;DHT22;13669;50.186;27.062;2022-07-18T10:11:05;21.30;99.90
25839;DHT22;13669;50.186;27.062;2022-07-18T10:13:34;21.70;99.90
25839;DHT22;13669;50.186;27.062;2022-07-18T10:16:26;22.10;99.90
25839;DHT22;13669;50.186;27.062;2022-07-18T10:18:54;22.30;99.90
25839;DHT22;13669;50.186;27.062;2022-07-18T10:21:21;22.40;99.90
25839;DHT22;13669;50.186;27.062;2022-07-18T10:23:51;22.80;99.90
25839;DHT22;13669;50.186;27.062;2022-07-18T10:26:29;23.00;99.90
25839;DHT22;13669;50.186;27.062;2022-07-18T10:29:15;22.40;99.90
25839;DHT22;13669;50.186;27.062;2022-07-18T10:32:34;21.80;99.90
25839;DHT22;13669;50.186;27.062;2022-07-18T10:35:01;21.80;99.90
25839;DHT22;13669;50.186;27.062;2022-07-18T10:37:31;22.30;99.90
25839;DHT22;13669;50.186;27.062;2022-07-18T10:40:22;22.80;99.90
25839;DHT22;13669;50.186;27.062;2022-07-18T10:46:08;23.40;99.90
25839;DHT22;13669;50.186;27.062;2022-07-18T10:51:09;23.40;99.90
25839;DHT22;13669;50.186;27.062;2022-07-18T10:54:06;23.50;99.90
25839;DHT22;13669;50.186;27.062;2022-07-18T10:59:22;23.60;99.90
25839;DHT22;13669;50.186;27.062;2022-07-18T11:01:56;23.90;99.90
25839;DHT22;13669;50.186;27.062;2022-07-18T11:12:29;24.60;99.90
25839;DHT22;13669;50.186;27.062;2022-07-18T11:15:14;24.90;99.90
25839;DHT22;13669;50.186;27.062;2022-07-18T11:18:02;25.70;99.90
25839;DHT22;13669;50.186;27.062;2022-07-18T11:23:03;24.90;99.90
25839;DHT22;13669;50.186;27.062;2022-07-18T11:25:31;24.80;99.90
25839;DHT22;13669;50.186;27.062;2022-07-18T11:28:19;25.30;99.90
25839;DHT22;13669;50.186;27.062;2022-07-18T11:31:05;26.70;99.90
25839;DHT22;13669;50.186;27.062;2022-07-18T11:33:38;27.80;99.90
25839;DHT22;13669;50.186;27.062;2022-07-18T11:38:36;29.80;99.90
25839;DHT22;13669;50.186;27.062;2022-07-18T11:41:04;30.40;99.90
25839;DHT22;13669;50.186;27.062;2022-07-18T11:43:32;31.00;99.90
25839;DHT22;13669;50.186;27.062;2022-07-18T11:46:08;29.30;99.90
25839;DHT22;13669;50.186;27.062;2022-07-18T11:48:47;26.50;99.90
25839;DHT22;13669;50.186;27.062;2022-07-18T11:51:17;25.30;99.90
25839;DHT22;13669;50.186;27.062;2022-07-18T11:53:50;24.30;99.90
25839;DHT22;13669;50.186;27.062;2022-07-18T11:56:19;23.30;99.90
25839;DHT22;13669;50.186;27.062;2022-07-18T11:58:48;22.50;81.90
25839;DHT22;13669;50.186;27.062;2022-07-18T12:01:17;21.80;1.00
25839;DHT22;13669;50.186;27.062;2022-07-18T12:03:47;21.10;1.00
25839;DHT22;13669;50.186;27.062;2022-07-18T12:06:17;20.90;1.00
25839;DHT22;13669;50.186;27.062;2022-07-18T12:14:03;20.60;99.90
25839;DHT22;13669;50.186;27.062;2022-07-18T12:16:47;20.60;1.00
25839;DHT22;13669;50.186;27.062;2022-07-18T12:19:20;20.70;99.90
25839;DHT22;13669;50.186;27.062;2022-07-18T12:21:56;20.80;1.00
25839;DHT22;13669;50.186;27.062;2022-07-18T12:29:58;20.90;99.90
25839;DHT22;13669;50.186;27.062;2022-07-18T12:32:55;21.20;1.00
25839;DHT22;13669;50.186;27.062;2022-07-18T12:35:31;21.30;1.00
25839;DHT22;13669;50.186;27.062;2022-07-18T12:38:12;21.40;99.90
25839;DHT22;13669;50.186;27.062;2022-07-18T12:43:29;25.00;99.90
25839;DHT22;13669;50.186;27.062;2022-07-18T12:46:00;26.40;99.90
25839;DHT22;13669;50.186;27.062;2022-07-18T12:48:30;27.80;99.90
25839;DHT22;13669;50.186;27.062;2022-07-18T12:51:03;29.30;99.90
25839;DHT22;13669;50.186;27.062;2022-07-18T12:53:33;30.60;1.00
25839;DHT22;13669;50.186;27.062;2022-07-18T12:56:01;31.50;99.90
25839;DHT22;13669;50.186;27.062;2022-07-18T12:58:29;32.00;1.00
25839;DHT22;13669;50.186;27.062;2022-07-18T13:00:57;32.20;99.90
25839;DHT22;13669;50.186;27.062;2022-07-18T13:03:33;31.40;1.00
25839;DHT22;13669;50.186;27.062;2022-07-18T13:06:01;29.90;1.00
25839;DHT22;13669;50.186;27.062;2022-07-18T13:08:29;28.30;1.00
25839;DHT22;13669;50.186;27.062;2022-07-18T13:10:58;26.90;1.00
25839;DHT22;13669;50.186;27.062;2022-07-18T13:13:26;25.80;1.00
25839;DHT22;13669;50.186;27.062;2022-07-18T13:15:54;24.80;23.30
25839;DHT22;13669;50.186;27.062;2022-07-18T13:18:21;24.00;1.00
25839;DHT22;13669;50.186;27.062;2022-07-18T13:20:49;23.60;99.90
25839;DHT22;13669;50.186;27.062;2022-07-18T13:23:17;23.60;81.20
25839;DHT22;13669;50.186;27.062;2022-07-18T13:25:45;23.50;99.90
25839;DHT22;13669;50.186;27.062;2022-07-18T13:28:13;23.60;1.00
25839;DHT22;13669;50.186;27.062;2022-07-18T13:30:41;24.20;1.00
25839;DHT22;13669;50.186;27.062;2022-07-18T13:33:09;26.30;1.00
25839;DHT22;13669;50.186;27.062;2022-07-18T13:35:36;28.40;99.90
25839;DHT22;13669;50.186;27.062;2022-07-18T13:38:04;30.20;1.00
25839;DHT22;13669;50.186;27.062;2022-07-18T13:40:31;31.50;1.00
25839;DHT22;13669;50.186;27.062;2022-07-18T13:42:59;32.20;1.00
25839;DHT22;13669;50.186;27.062;2022-07-18T13:45:27;32.00;1.00
25839;DHT22;13669;50.186;27.062;2022-07-18T13:47:54;30.90;1.00
25839;DHT22;13669;50.186;27.062;2022-07-18T13:50:22;28.90;1.00
25839;DHT22;13669;50.186;27.062;2022-07-18T13:52:49;27.60;1.00
25839;DHT22;13669;50.186;27.062;2022-07-18T13:55:17;26.40;1.00
25839;DHT22;13669;50.186;27.062;2022-07-18T13:57:44;25.60;1.00
25839;DHT22;13669;50.186;27.062;2022-07-18T14:00:12;24.90;1.00
25839;DHT22;13669;50.186;27.062;2022-07-18T14:02:40;24.40;1.00
25839;DHT22;13669;50.186;27.062;2022-07-18T14:05:08;24.10;1.00
25839;DHT22;13669;50.186;27.062;2022-07-18T14:07:42;23.70;1.00
25839;DHT22;13669;50.186;27.062;2022-07-18T14:10:11;23.50;1.00
25839;DHT22;13669;50.186;27.062;2022-07-18T14:12:39;23.30;99.90
25839;DHT22;13669;50.186;27.062;2022-07-18T14:15:08;23.30;99.90
25839;DHT22;13669;50.186;27.062;2022-07-18T14:17:35;23.10;1.00
25839;DHT22;13669;50.186;27.062;2022-07-18T14:20:03;23.00;99.90
25839;DHT22;13669;50.186;27.062;2022-07-18T14:22:34;22.90;99.90
25839;DHT22;13669;50.186;27.062;2022-07-18T14:25:03;22.80;99.90
25839;DHT22;13669;50.186;27.062;2022-07-18T14:27:31;22.80;99.90
25839;DHT22;13669;50.186;27.062;2022-07-18T14:29:59;22.90;18.20
25839;DHT22;13669;50.186;27.062;2022-07-18T14:32:27;23.30;96.00
25839;DHT22;13669;50.186;27.062;2022-07-18T14:34:55;24.60;3.90
25839;DHT22;13669;50.186;27.062;2022-07-18T14:37:23;26.40;1.00
25839;DHT22;13669;50.186;27.062;2022-07-18T14:39:51;28.20;1.00
25839;DHT22;13669;50.186;27.062;2022-07-18T14:42:23;29.30;1.00
25839;DHT22;13669;50.186;27.062;2022-07-18T14:44:52;30.30;1.00
25839;DHT22;13669;50.186;27.062;2022-07-18T14:47:20;31.30;1.00
25839;DHT22;13669;50.186;27.062;2022-07-18T14:49:48;30.90;18.50
25839;DHT22;13669;50.186;27.062;2022-07-18T14:52:16;29.30;99.90
25839;DHT22;13669;50.186;27.062;2022-07-18T14:54:44;27.80;94.60
25839;DHT22;13669;50.186;27.062;2022-07-18T14:57:11;26.50;99.30
25839;DHT22;13669;50.186;27.062;2022-07-18T14:59:43;25.60;71.90
25839;DHT22;13669;50.186;27.062;2022-07-18T15:02:10;25.10;1.00
25839;DHT22;13669;50.186;27.062;2022-07-18T15:04:40;24.80;11.60
25839;DHT22;13669;50.186;27.062;2022-07-18T15:07:08;24.60;96.20
25839;DHT22;13669;50.186;27.062;2022-07-18T15:09:35;24.50;98.60
25839;DHT22;13669;50.186;27.062;2022-07-18T15:12:03;24.30;63.70
25839;DHT22;13669;50.186;27.062;2022-07-18T15:14:30;24.70;13.90
25839;DHT22;13669;50.186;27.062;2022-07-18T15:16:58;25.50;1.00
25839;DHT22;13669;50.186;27.062;2022-07-18T15:19:26;25.30;18.50
25839;DHT22;13669;50.186;27.062;2022-07-18T15:21:53;25.00;51.60
25839;DHT22;13669;50.186;27.062;2022-07-18T15:24:21;24.80;99.90
25839;DHT22;13669;50.186;27.062;2022-07-18T15:26:48;24.80;49.20
25839;DHT22;13669;50.186;27.062;2022-07-18T15:29:16;25.80;27.20
25839;DHT22;13669;50.186;27.062;2022-07-18T15:31:43;27.20;1.00
25839;DHT22;13669;50.186;27.062;2022-07-18T15:34:11;27.90;1.00
25839;DHT22;13669;50.186;27.062;2022-07-18T15:36:39;27.20;52.40
25839;DHT22;13669;50.186;27.062;2022-07-18T15:39:06;26.50;1.00
25839;DHT22;13669;50.186;27.062;2022-07-18T15:41:34;26.40;1.00
25839;DHT22;13669;50.186;27.062;2022-07-18T15:44:01;26.10;99.90
25839;DHT22;13669;50.186;27.062;2022-07-18T15:46:29;26.10;36.50
25839;DHT22;13669;50.186;27.062;2022-07-18T15:48:57;27.00;5.30
25839;DHT22;13669;50.186;27.062;2022-07-18T15:51:24;27.30;99.90
25839;DHT22;13669;50.186;27.062;2022-07-18T15:53:52;27.60;99.90
25839;DHT22;13669;50.186;27.062;2022-07-18T15:56:19;26.60;34.20
25839;DHT22;13669;50.186;27.062;2022-07-18T15:58:50;25.30;60.80
25839;DHT22;13669;50.186;27.062;2022-07-18T16:01:17;24.40;99.90
25839;DHT22;13669;50.186;27.062;2022-07-18T16:03:45;23.70;99.90
25839;DHT22;13669;50.186;27.062;2022-07-18T16:06:19;23.30;23.10
25839;DHT22;13669;50.186;27.062;2022-07-18T16:08:50;23.10;99.90
25839;DHT22;13669;50.186;27.062;2022-07-18T16:11:18;22.80;99.90
25839;DHT22;13669;50.186;27.062;2022-07-18T16:13:45;22.80;99.90
25839;DHT22;13669;50.186;27.062;2022-07-18T16:16:14;22.70;99.90
25839;DHT22;13669;50.186;27.062;2022-07-18T16:18:42;22.70;1.00
25839;DHT22;13669;50.186;27.062;2022-07-18T16:21:12;22.80;1.00